Aérodrome :
LOGIN :

S'inscrire | Disclaimer

   EN    FR    IT 

 










Légende :    VFR   VFR Marginal   IFR   IFR Intensif   IFR Très Intensif
Visi : 
Plafond : 
>= 8 km
>= 3000ft
5 à 8 km
1000 à 3000 ft
1500m à 5 km
500 à 1000 ft
800 à 1500m
200 à 500 ft
< 800m
< 200 ft
Symboles :   Orages  Brouillard  Fortes neiges  Fortes précipitations  Vent > 20 kt
SIGMETs :   Divers  Orages  Givrage  Turbulence  Onde Orograph.  Cendres Volcan.







- Altitude de l'aérodrome : 63 ft
- Code IATA : BZM


EHWO - Woensdrecht Airbase

DERNIER METAR :
  • 201655Z AUTO VRB01KT 9999 FEW003 BKN070 BKN077 02/02 Q0999 REDZ BLU

METARs EXPIRÉS :
  • 201637Z AUTO VRB02KT 9999 -DZRA FEW038 BKN061 BKN072 02/02 Q0999 BLU
  • 201629Z AUTO 10003KT 070V140 9999 DZRA FEW003 SCT005 BKN016 02/02 Q0999 YLO
  • 201625Z AUTO 09003KT 9999 DZ BKN005 BKN006 OVC017 02/02 Q0999 YLO
  • 201614Z AUTO 09003KT 9999 -DZ BKN006 BKN007 OVC017 03/02 Q0999 YLO
  • 201604Z AUTO 08004KT 050V110 9999 -DZ FEW004 BKN007 OVC009 03/02 Q0999 GRN
  • 201555Z AUTO 09004KT 050V120 9999 BKN005 OVC007 03/02 Q0999 YLO
  • 201544Z AUTO 10003KT 9999 -DZ OVC007 03/02 Q0999 GRN
  • 201525Z AUTO 10003KT 060V150 9999 FEW005 OVC006 03/03 Q0999 YLO
  • 201509Z AUTO 10003KT 080V140 9999 -DZ FEW004 BKN006 OVC007 03/03 Q0999 YLO
  • 201455Z AUTO 09004KT 070V150 9999 DZRA SCT005 BKN006 OVC008 03/03 Q0998 YLO
  • 201438Z AUTO 10004KT 090V150 9999 -DZRA FEW003 BKN005 OVC006 03/03 Q0999 YLO
  • 201425Z AUTO 11004KT 080V140 9999 -RA FEW004 BKN006 OVC007 03/03 Q0999 RERA REDZ YLO
  • 201410Z AUTO 12003KT 080V210 9999 DZRA FEW005 BKN008 OVC010 03/03 Q0999 GRN
  • 201405Z AUTO 12003KT 080V210 9999 DZ FEW004 BKN007 OVC008 03/03 Q0999 GRN
  • 201355Z AUTO 11003KT 060V130 9999 -RA SCT004 SCT005 BKN007 03/03 Q0999 RERA REDZ YLO

Prévision TAF périmée.
Pas de NOTAMs connus pour ce terrain.



MET'MAP, la Météo Aéronautique d'un coup d'oeil ! - Copyright ORBIFLY Décembre 2007 - Disclaimer

ORBIFLY MET'MAP TEAM :

Programmation & Développement : Alexandra Zaïnal
Conception & Développement : Baudouin d'Aumeries
Co-Programmation & Développement : Marc-Olivier Méhu
Soutien technique & logistique : Manuel Goepfert

Contact : metmap@orbifly.com




SOURCES & CREDITS :

   NOAA